sensor_id;sensor_type;location;lat;lon;timestamp;P1;durP1;ratioP1;P2;durP2;ratioP2
39994;SDS011;25686;51.908;10.418;2022-08-20T00:00:27;6.30;;;5.65;;
39994;SDS011;25686;51.908;10.418;2022-08-20T00:02:28;8.60;;;5.95;;
39994;SDS011;25686;51.908;10.418;2022-08-20T00:04:29;6.72;;;6.03;;
39994;SDS011;25686;51.908;10.418;2022-08-20T00:06:30;7.78;;;5.57;;
39994;SDS011;25686;51.908;10.418;2022-08-20T00:08:33;6.75;;;6.15;;
39994;SDS011;25686;51.908;10.418;2022-08-20T00:10:35;9.27;;;6.13;;
39994;SDS011;25686;51.908;10.418;2022-08-20T00:12:37;6.85;;;6.25;;
39994;SDS011;25686;51.908;10.418;2022-08-20T00:14:43;9.13;;;6.22;;
39994;SDS011;25686;51.908;10.418;2022-08-20T00:16:44;7.93;;;6.32;;
39994;SDS011;25686;51.908;10.418;2022-08-20T00:18:45;7.07;;;6.38;;
39994;SDS011;25686;51.908;10.418;2022-08-20T00:20:47;7.38;;;6.57;;
39994;SDS011;25686;51.908;10.418;2022-08-20T00:22:49;6.60;;;6.00;;
39994;SDS011;25686;51.908;10.418;2022-08-20T00:24:50;7.93;;;6.25;;
39994;SDS011;25686;51.908;10.418;2022-08-20T00:26:51;9.10;;;6.40;;
39994;SDS011;25686;51.908;10.418;2022-08-20T00:28:52;8.52;;;6.95;;
39994;SDS011;25686;51.908;10.418;2022-08-20T00:30:53;9.63;;;5.95;;
39994;SDS011;25686;51.908;10.418;2022-08-20T00:32:57;7.57;;;6.75;;
39994;SDS011;25686;51.908;10.418;2022-08-20T00:34:59;7.75;;;6.93;;
39994;SDS011;25686;51.908;10.418;2022-08-20T00:37:00;7.60;;;6.63;;
39994;SDS011;25686;51.908;10.418;2022-08-20T00:39:01;7.80;;;6.50;;
39994;SDS011;25686;51.908;10.418;2022-08-20T00:41:03;8.18;;;6.88;;
39994;SDS011;25686;51.908;10.418;2022-08-20T00:43:05;8.20;;;6.68;;
39994;SDS011;25686;51.908;10.418;2022-08-20T00:45:06;7.75;;;6.57;;
39994;SDS011;25686;51.908;10.418;2022-08-20T00:47:07;8.50;;;6.90;;
39994;SDS011;25686;51.908;10.418;2022-08-20T00:49:10;8.50;;;6.95;;
39994;SDS011;25686;51.908;10.418;2022-08-20T00:53:14;7.13;;;6.47;;
39994;SDS011;25686;51.908;10.418;2022-08-20T00:55:16;7.22;;;6.63;;
39994;SDS011;25686;51.908;10.418;2022-08-20T00:57:21;8.05;;;6.70;;
39994;SDS011;25686;51.908;10.418;2022-08-20T00:59:27;7.60;;;6.72;;
39994;SDS011;25686;51.908;10.418;2022-08-20T01:01:29;7.80;;;7.00;;
39994;SDS011;25686;51.908;10.418;2022-08-20T01:03:33;8.10;;;6.90;;
39994;SDS011;25686;51.908;10.418;2022-08-20T01:05:38;9.02;;;7.13;;
39994;SDS011;25686;51.908;10.418;2022-08-20T01:07:39;8.20;;;6.85;;
39994;SDS011;25686;51.908;10.418;2022-08-20T01:09:41;7.35;;;6.65;;
39994;SDS011;25686;51.908;10.418;2022-08-20T01:11:42;8.63;;;7.13;;
39994;SDS011;25686;51.908;10.418;2022-08-20T01:13:43;7.65;;;6.93;;
39994;SDS011;25686;51.908;10.418;2022-08-20T01:15:46;8.27;;;7.05;;
39994;SDS011;25686;51.908;10.418;2022-08-20T01:17:49;8.57;;;6.60;;
39994;SDS011;25686;51.908;10.418;2022-08-20T01:20:13;8.35;;;7.15;;
39994;SDS011;25686;51.908;10.418;2022-08-20T01:22:12;7.57;;;6.88;;
39994;SDS011;25686;51.908;10.418;2022-08-20T01:24:36;8.38;;;7.07;;
39994;SDS011;25686;51.908;10.418;2022-08-20T01:26:39;8.15;;;7.15;;
39994;SDS011;25686;51.908;10.418;2022-08-20T01:30:42;8.23;;;7.00;;
39994;SDS011;25686;51.908;10.418;2022-08-20T01:32:43;7.70;;;6.97;;
39994;SDS011;25686;51.908;10.418;2022-08-20T01:34:44;8.63;;;7.18;;
39994;SDS011;25686;51.908;10.418;2022-08-20T01:36:47;7.80;;;7.00;;
39994;SDS011;25686;51.908;10.418;2022-08-20T01:38:49;8.80;;;7.97;;
39994;SDS011;25686;51.908;10.418;2022-08-20T01:41:03;7.88;;;6.85;;
39994;SDS011;25686;51.908;10.418;2022-08-20T01:43:06;9.95;;;7.78;;
39994;SDS011;25686;51.908;10.418;2022-08-20T01:45:08;8.55;;;7.45;;
39994;SDS011;25686;51.908;10.418;2022-08-20T01:49:26;10.23;;;7.57;;
39994;SDS011;25686;51.908;10.418;2022-08-20T01:51:29;9.60;;;8.00;;
39994;SDS011;25686;51.908;10.418;2022-08-20T01:53:35;9.57;;;8.10;;
39994;SDS011;25686;51.908;10.418;2022-08-20T01:55:36;9.13;;;7.80;;
39994;SDS011;25686;51.908;10.418;2022-08-20T01:57:38;9.30;;;7.65;;
39994;SDS011;25686;51.908;10.418;2022-08-20T01:59:39;10.40;;;8.57;;
39994;SDS011;25686;51.908;10.418;2022-08-20T02:01:40;9.13;;;8.18;;
39994;SDS011;25686;51.908;10.418;2022-08-20T02:03:41;9.27;;;8.27;;
39994;SDS011;25686;51.908;10.418;2022-08-20T02:05:43;11.30;;;8.30;;
39994;SDS011;25686;51.908;10.418;2022-08-20T02:07:44;8.85;;;7.95;;
39994;SDS011;25686;51.908;10.418;2022-08-20T02:09:46;9.75;;;8.10;;
39994;SDS011;25686;51.908;10.418;2022-08-20T02:11:47;9.20;;;8.30;;
39994;SDS011;25686;51.908;10.418;2022-08-20T02:13:48;13.25;;;8.55;;
39994;SDS011;25686;51.908;10.418;2022-08-20T02:15:51;10.07;;;8.65;;
39994;SDS011;25686;51.908;10.418;2022-08-20T02:17:52;12.15;;;9.48;;
39994;SDS011;25686;51.908;10.418;2022-08-20T02:19:54;10.75;;;8.68;;
39994;SDS011;25686;51.908;10.418;2022-08-20T02:21:58;12.27;;;9.13;;
39994;SDS011;25686;51.908;10.418;2022-08-20T02:23:59;11.55;;;9.00;;
39994;SDS011;25686;51.908;10.418;2022-08-20T02:26:00;11.45;;;8.82;;
39994;SDS011;25686;51.908;10.418;2022-08-20T02:28:05;10.15;;;8.23;;
39994;SDS011;25686;51.908;10.418;2022-08-20T02:30:08;14.27;;;9.10;;
39994;SDS011;25686;51.908;10.418;2022-08-20T02:32:10;12.13;;;8.85;;
39994;SDS011;25686;51.908;10.418;2022-08-20T02:34:11;11.02;;;8.23;;
39994;SDS011;25686;51.908;10.418;2022-08-20T02:36:13;11.30;;;8.70;;
39994;SDS011;25686;51.908;10.418;2022-08-20T02:38:16;12.20;;;9.30;;
39994;SDS011;25686;51.908;10.418;2022-08-20T02:40:19;12.32;;;9.13;;
39994;SDS011;25686;51.908;10.418;2022-08-20T02:42:20;11.20;;;9.30;;
39994;SDS011;25686;51.908;10.418;2022-08-20T02:44:21;13.52;;;9.40;;
39994;SDS011;25686;51.908;10.418;2022-08-20T02:46:22;10.20;;;9.10;;
39994;SDS011;25686;51.908;10.418;2022-08-20T02:48:23;11.95;;;9.52;;
39994;SDS011;25686;51.908;10.418;2022-08-20T02:50:24;11.88;;;9.15;;
39994;SDS011;25686;51.908;10.418;2022-08-20T02:52:25;12.50;;;9.52;;
39994;SDS011;25686;51.908;10.418;2022-08-20T02:54:26;12.13;;;9.63;;
39994;SDS011;25686;51.908;10.418;2022-08-20T02:56:28;13.10;;;9.95;;
39994;SDS011;25686;51.908;10.418;2022-08-20T02:58:29;11.07;;;9.68;;
39994;SDS011;25686;51.908;10.418;2022-08-20T03:00:30;12.68;;;9.43;;
39994;SDS011;25686;51.908;10.418;2022-08-20T03:02:32;12.35;;;9.27;;
39994;SDS011;25686;51.908;10.418;2022-08-20T03:04:33;13.48;;;9.90;;
39994;SDS011;25686;51.908;10.418;2022-08-20T03:06:33;11.35;;;10.18;;
39994;SDS011;25686;51.908;10.418;2022-08-20T03:08:35;13.80;;;10.63;;
39994;SDS011;25686;51.908;10.418;2022-08-20T03:10:36;11.65;;;9.57;;
39994;SDS011;25686;51.908;10.418;2022-08-20T03:12:37;11.82;;;8.82;;
39994;SDS011;25686;51.908;10.418;2022-08-20T03:14:38;11.52;;;9.35;;
39994;SDS011;25686;51.908;10.418;2022-08-20T03:16:39;14.60;;;10.15;;
39994;SDS011;25686;51.908;10.418;2022-08-20T03:18:42;12.48;;;9.25;;
39994;SDS011;25686;51.908;10.418;2022-08-20T03:20:44;12.00;;;9.48;;
39994;SDS011;25686;51.908;10.418;2022-08-20T03:22:45;10.68;;;9.25;;
39994;SDS011;25686;51.908;10.418;2022-08-20T03:24:48;11.13;;;9.38;;
39994;SDS011;25686;51.908;10.418;2022-08-20T03:26:49;15.10;;;9.23;;
39994;SDS011;25686;51.908;10.418;2022-08-20T03:28:49;11.02;;;9.05;;
39994;SDS011;25686;51.908;10.418;2022-08-20T03:30:50;11.73;;;9.20;;
39994;SDS011;25686;51.908;10.418;2022-08-20T03:32:52;11.60;;;9.10;;
39994;SDS011;25686;51.908;10.418;2022-08-20T03:34:53;11.07;;;9.48;;
39994;SDS011;25686;51.908;10.418;2022-08-20T03:36:54;10.75;;;9.65;;
39994;SDS011;25686;51.908;10.418;2022-08-20T03:38:56;11.10;;;9.07;;
39994;SDS011;25686;51.908;10.418;2022-08-20T03:40:58;13.65;;;9.85;;
39994;SDS011;25686;51.908;10.418;2022-08-20T03:42:59;10.63;;;9.38;;
39994;SDS011;25686;51.908;10.418;2022-08-20T03:45:00;11.23;;;9.40;;
39994;SDS011;25686;51.908;10.418;2022-08-20T03:47:02;12.32;;;9.23;;
39994;SDS011;25686;51.908;10.418;2022-08-20T03:49:08;12.48;;;9.48;;
39994;SDS011;25686;51.908;10.418;2022-08-20T03:51:09;14.90;;;9.70;;
39994;SDS011;25686;51.908;10.418;2022-08-20T03:53:11;13.02;;;10.30;;
39994;SDS011;25686;51.908;10.418;2022-08-20T03:55:12;12.07;;;9.95;;
39994;SDS011;25686;51.908;10.418;2022-08-20T03:57:14;12.95;;;9.70;;
39994;SDS011;25686;51.908;10.418;2022-08-20T03:59:15;10.77;;;9.45;;
39994;SDS011;25686;51.908;10.418;2022-08-20T04:01:16;11.50;;;9.15;;
39994;SDS011;25686;51.908;10.418;2022-08-20T04:03:17;12.52;;;10.20;;
39994;SDS011;25686;51.908;10.418;2022-08-20T04:05:18;13.88;;;9.50;;
39994;SDS011;25686;51.908;10.418;2022-08-20T04:07:22;14.32;;;9.82;;
39994;SDS011;25686;51.908;10.418;2022-08-20T04:09:26;13.93;;;9.55;;
39994;SDS011;25686;51.908;10.418;2022-08-20T04:11:28;12.40;;;8.68;;
39994;SDS011;25686;51.908;10.418;2022-08-20T04:13:32;11.52;;;8.63;;
39994;SDS011;25686;51.908;10.418;2022-08-20T04:15:34;14.27;;;9.48;;
39994;SDS011;25686;51.908;10.418;2022-08-20T04:17:36;12.07;;;10.00;;
39994;SDS011;25686;51.908;10.418;2022-08-20T04:19:37;12.82;;;10.00;;
39994;SDS011;25686;51.908;10.418;2022-08-20T04:21:38;13.25;;;9.65;;
39994;SDS011;25686;51.908;10.418;2022-08-20T04:23:39;12.65;;;9.85;;
39994;SDS011;25686;51.908;10.418;2022-08-20T04:25:41;13.55;;;9.98;;
39994;SDS011;25686;51.908;10.418;2022-08-20T04:27:42;15.48;;;10.10;;
39994;SDS011;25686;51.908;10.418;2022-08-20T04:29:44;15.15;;;9.85;;
39994;SDS011;25686;51.908;10.418;2022-08-20T04:31:45;12.40;;;9.55;;
39994;SDS011;25686;51.908;10.418;2022-08-20T04:33:46;12.65;;;9.45;;
39994;SDS011;25686;51.908;10.418;2022-08-20T04:35:47;11.07;;;9.40;;
39994;SDS011;25686;51.908;10.418;2022-08-20T04:37:49;13.27;;;9.65;;
39994;SDS011;25686;51.908;10.418;2022-08-20T04:39:56;14.15;;;9.18;;
39994;SDS011;25686;51.908;10.418;2022-08-20T04:42:16;12.05;;;8.55;;
39994;SDS011;25686;51.908;10.418;2022-08-20T04:44:17;11.02;;;9.15;;
39994;SDS011;25686;51.908;10.418;2022-08-20T04:46:18;11.10;;;9.10;;
39994;SDS011;25686;51.908;10.418;2022-08-20T04:48:19;10.98;;;8.80;;
39994;SDS011;25686;51.908;10.418;2022-08-20T04:50:22;10.90;;;8.75;;
39994;SDS011;25686;51.908;10.418;2022-08-20T04:52:23;12.68;;;9.32;;
39994;SDS011;25686;51.908;10.418;2022-08-20T04:54:24;12.25;;;9.50;;
39994;SDS011;25686;51.908;10.418;2022-08-20T04:56:26;10.95;;;8.93;;
39994;SDS011;25686;51.908;10.418;2022-08-20T04:58:29;15.00;;;8.90;;
39994;SDS011;25686;51.908;10.418;2022-08-20T05:00:30;9.90;;;8.25;;
39994;SDS011;25686;51.908;10.418;2022-08-20T05:02:31;12.57;;;9.05;;
39994;SDS011;25686;51.908;10.418;2022-08-20T05:04:34;10.85;;;8.85;;
39994;SDS011;25686;51.908;10.418;2022-08-20T05:06:36;10.57;;;8.55;;
39994;SDS011;25686;51.908;10.418;2022-08-20T05:08:37;12.05;;;8.85;;
39994;SDS011;25686;51.908;10.418;2022-08-20T05:10:39;9.73;;;8.60;;
39994;SDS011;25686;51.908;10.418;2022-08-20T05:12:40;9.25;;;8.10;;
39994;SDS011;25686;51.908;10.418;2022-08-20T05:14:41;9.65;;;8.18;;
39994;SDS011;25686;51.908;10.418;2022-08-20T05:16:42;11.57;;;7.93;;
39994;SDS011;25686;51.908;10.418;2022-08-20T05:18:43;10.85;;;8.18;;
39994;SDS011;25686;51.908;10.418;2022-08-20T05:20:46;9.18;;;8.25;;
39994;SDS011;25686;51.908;10.418;2022-08-20T05:22:47;10.18;;;7.85;;
39994;SDS011;25686;51.908;10.418;2022-08-20T05:24:48;8.95;;;8.02;;
39994;SDS011;25686;51.908;10.418;2022-08-20T05:26:49;11.05;;;7.95;;
39994;SDS011;25686;51.908;10.418;2022-08-20T05:28:50;9.77;;;8.50;;
39994;SDS011;25686;51.908;10.418;2022-08-20T05:30:51;10.93;;;8.30;;
39994;SDS011;25686;51.908;10.418;2022-08-20T05:32:53;12.40;;;9.07;;
39994;SDS011;25686;51.908;10.418;2022-08-20T05:34:54;14.55;;;9.15;;
39994;SDS011;25686;51.908;10.418;2022-08-20T05:36:54;9.80;;;8.70;;
39994;SDS011;25686;51.908;10.418;2022-08-20T05:38:56;11.88;;;8.50;;
39994;SDS011;25686;51.908;10.418;2022-08-20T05:40:57;11.35;;;8.70;;
39994;SDS011;25686;51.908;10.418;2022-08-20T05:42:58;11.73;;;9.30;;
39994;SDS011;25686;51.908;10.418;2022-08-20T05:44:59;12.25;;;9.35;;
39994;SDS011;25686;51.908;10.418;2022-08-20T05:47:00;12.63;;;9.27;;
39994;SDS011;25686;51.908;10.418;2022-08-20T05:49:03;9.57;;;8.57;;
39994;SDS011;25686;51.908;10.418;2022-08-20T05:51:03;12.25;;;9.25;;
39994;SDS011;25686;51.908;10.418;2022-08-20T05:53:04;9.95;;;8.65;;
39994;SDS011;25686;51.908;10.418;2022-08-20T05:55:06;9.48;;;8.40;;
39994;SDS011;25686;51.908;10.418;2022-08-20T05:57:08;10.52;;;7.85;;
39994;SDS011;25686;51.908;10.418;2022-08-20T05:59:09;10.93;;;9.00;;
39994;SDS011;25686;51.908;10.418;2022-08-20T06:01:12;12.02;;;8.25;;
39994;SDS011;25686;51.908;10.418;2022-08-20T06:03:13;8.38;;;7.35;;
39994;SDS011;25686;51.908;10.418;2022-08-20T06:05:33;8.88;;;6.88;;
39994;SDS011;25686;51.908;10.418;2022-08-20T06:07:34;7.93;;;7.13;;
39994;SDS011;25686;51.908;10.418;2022-08-20T06:09:37;7.75;;;6.93;;
39994;SDS011;25686;51.908;10.418;2022-08-20T06:11:38;9.35;;;6.72;;
39994;SDS011;25686;51.908;10.418;2022-08-20T06:13:39;7.20;;;6.50;;
39994;SDS011;25686;51.908;10.418;2022-08-20T06:15:40;8.27;;;6.72;;
39994;SDS011;25686;51.908;10.418;2022-08-20T06:17:41;7.40;;;6.07;;
39994;SDS011;25686;51.908;10.418;2022-08-20T06:19:43;6.97;;;6.32;;
39994;SDS011;25686;51.908;10.418;2022-08-20T06:21:44;6.32;;;5.72;;
39994;SDS011;25686;51.908;10.418;2022-08-20T06:23:45;6.45;;;4.95;;
39994;SDS011;25686;51.908;10.418;2022-08-20T06:25:46;5.63;;;5.13;;
39994;SDS011;25686;51.908;10.418;2022-08-20T06:27:49;11.02;;;5.07;;
39994;SDS011;25686;51.908;10.418;2022-08-20T06:29:50;4.93;;;4.43;;
39994;SDS011;25686;51.908;10.418;2022-08-20T06:31:51;5.47;;;3.83;;
39994;SDS011;25686;51.908;10.418;2022-08-20T06:33:52;4.75;;;3.80;;
39994;SDS011;25686;51.908;10.418;2022-08-20T06:35:53;4.13;;;3.55;;
39994;SDS011;25686;51.908;10.418;2022-08-20T06:37:54;4.78;;;3.70;;
39994;SDS011;25686;51.908;10.418;2022-08-20T06:40:01;3.55;;;3.25;;
39994;SDS011;25686;51.908;10.418;2022-08-20T06:42:02;3.90;;;3.50;;
39994;SDS011;25686;51.908;10.418;2022-08-20T06:44:03;4.50;;;3.72;;
39994;SDS011;25686;51.908;10.418;2022-08-20T06:46:05;5.47;;;3.60;;
39994;SDS011;25686;51.908;10.418;2022-08-20T06:48:08;5.10;;;3.55;;
39994;SDS011;25686;51.908;10.418;2022-08-20T06:50:11;5.90;;;3.83;;
39994;SDS011;25686;51.908;10.418;2022-08-20T06:52:13;6.32;;;3.72;;
39994;SDS011;25686;51.908;10.418;2022-08-20T06:54:17;5.15;;;3.67;;
39994;SDS011;25686;51.908;10.418;2022-08-20T06:56:18;6.38;;;3.53;;
39994;SDS011;25686;51.908;10.418;2022-08-20T06:58:19;4.90;;;3.88;;
39994;SDS011;25686;51.908;10.418;2022-08-20T07:00:21;7.45;;;3.42;;
39994;SDS011;25686;51.908;10.418;2022-08-20T07:02:22;3.72;;;3.42;;
39994;SDS011;25686;51.908;10.418;2022-08-20T07:04:24;4.03;;;3.63;;
39994;SDS011;25686;51.908;10.418;2022-08-20T07:06:25;4.15;;;3.78;;
39994;SDS011;25686;51.908;10.418;2022-08-20T07:08:26;4.38;;;3.97;;
39994;SDS011;25686;51.908;10.418;2022-08-20T07:10:28;7.18;;;4.18;;
39994;SDS011;25686;51.908;10.418;2022-08-20T07:12:29;5.40;;;4.25;;
39994;SDS011;25686;51.908;10.418;2022-08-20T07:14:30;9.15;;;4.20;;
39994;SDS011;25686;51.908;10.418;2022-08-20T07:16:31;5.80;;;4.13;;
39994;SDS011;25686;51.908;10.418;2022-08-20T07:18:32;7.13;;;4.30;;
39994;SDS011;25686;51.908;10.418;2022-08-20T07:20:33;6.38;;;4.03;;
39994;SDS011;25686;51.908;10.418;2022-08-20T07:22:35;7.50;;;3.78;;
39994;SDS011;25686;51.908;10.418;2022-08-20T07:24:36;8.82;;;4.10;;
39994;SDS011;25686;51.908;10.418;2022-08-20T07:26:37;5.57;;;4.07;;
39994;SDS011;25686;51.908;10.418;2022-08-20T07:28:38;5.70;;;4.00;;
39994;SDS011;25686;51.908;10.418;2022-08-20T07:30:39;5.45;;;4.32;;
39994;SDS011;25686;51.908;10.418;2022-08-20T07:32:59;7.45;;;4.50;;
39994;SDS011;25686;51.908;10.418;2022-08-20T07:35:00;5.80;;;4.28;;
39994;SDS011;25686;51.908;10.418;2022-08-20T07:37:01;6.18;;;5.03;;
39994;SDS011;25686;51.908;10.418;2022-08-20T07:39:02;6.75;;;4.82;;
39994;SDS011;25686;51.908;10.418;2022-08-20T07:41:06;6.72;;;5.20;;
39994;SDS011;25686;51.908;10.418;2022-08-20T07:43:07;7.78;;;5.50;;
39994;SDS011;25686;51.908;10.418;2022-08-20T07:45:10;7.68;;;5.00;;
39994;SDS011;25686;51.908;10.418;2022-08-20T07:47:12;7.43;;;5.88;;
39994;SDS011;25686;51.908;10.418;2022-08-20T07:49:13;8.93;;;6.20;;
39994;SDS011;25686;51.908;10.418;2022-08-20T07:51:15;6.93;;;6.28;;
39994;SDS011;25686;51.908;10.418;2022-08-20T07:53:16;8.02;;;6.50;;
39994;SDS011;25686;51.908;10.418;2022-08-20T07:55:18;6.35;;;5.68;;
39994;SDS011;25686;51.908;10.418;2022-08-20T07:57:20;6.32;;;5.30;;
39994;SDS011;25686;51.908;10.418;2022-08-20T07:59:21;5.93;;;5.10;;
39994;SDS011;25686;51.908;10.418;2022-08-20T08:01:24;7.38;;;5.90;;
39994;SDS011;25686;51.908;10.418;2022-08-20T08:03:27;5.80;;;5.22;;
39994;SDS011;25686;51.908;10.418;2022-08-20T08:05:29;7.68;;;6.32;;
39994;SDS011;25686;51.908;10.418;2022-08-20T08:07:30;7.05;;;5.22;;
39994;SDS011;25686;51.908;10.418;2022-08-20T08:09:33;9.18;;;5.45;;
39994;SDS011;25686;51.908;10.418;2022-08-20T08:11:35;9.07;;;6.20;;
39994;SDS011;25686;51.908;10.418;2022-08-20T08:13:37;6.32;;;5.72;;
39994;SDS011;25686;51.908;10.418;2022-08-20T08:15:40;7.53;;;6.15;;
39994;SDS011;25686;51.908;10.418;2022-08-20T08:17:42;6.00;;;5.13;;
39994;SDS011;25686;51.908;10.418;2022-08-20T08:19:47;6.53;;;5.82;;
39994;SDS011;25686;51.908;10.418;2022-08-20T08:21:49;7.03;;;5.75;;
39994;SDS011;25686;51.908;10.418;2022-08-20T08:23:50;8.60;;;6.13;;
39994;SDS011;25686;51.908;10.418;2022-08-20T08:25:52;6.90;;;6.20;;
39994;SDS011;25686;51.908;10.418;2022-08-20T08:27:53;10.77;;;6.85;;
39994;SDS011;25686;51.908;10.418;2022-08-20T08:29:54;8.20;;;7.40;;
39994;SDS011;25686;51.908;10.418;2022-08-20T08:31:55;7.75;;;6.95;;
39994;SDS011;25686;51.908;10.418;2022-08-20T08:33:57;11.68;;;7.60;;
39994;SDS011;25686;51.908;10.418;2022-08-20T08:36:03;12.25;;;7.40;;
39994;SDS011;25686;51.908;10.418;2022-08-20T08:38:04;7.93;;;7.03;;
39994;SDS011;25686;51.908;10.418;2022-08-20T08:40:05;11.10;;;6.90;;
39994;SDS011;25686;51.908;10.418;2022-08-20T08:44:28;11.60;;;7.55;;
39994;SDS011;25686;51.908;10.418;2022-08-20T08:46:30;13.02;;;7.35;;
39994;SDS011;25686;51.908;10.418;2022-08-20T08:48:33;10.55;;;7.55;;
39994;SDS011;25686;51.908;10.418;2022-08-20T08:50:35;10.93;;;7.63;;
39994;SDS011;25686;51.908;10.418;2022-08-20T08:52:37;7.57;;;6.57;;
39994;SDS011;25686;51.908;10.418;2022-08-20T08:54:44;8.02;;;6.75;;
39994;SDS011;25686;51.908;10.418;2022-08-20T08:56:46;8.88;;;5.85;;
39994;SDS011;25686;51.908;10.418;2022-08-20T08:58:47;6.78;;;6.07;;
39994;SDS011;25686;51.908;10.418;2022-08-20T09:00:48;20.20;;;6.82;;
39994;SDS011;25686;51.908;10.418;2022-08-20T09:04:59;8.63;;;6.63;;
39994;SDS011;25686;51.908;10.418;2022-08-20T09:07:01;10.30;;;6.53;;
39994;SDS011;25686;51.908;10.418;2022-08-20T09:09:04;19.20;;;7.25;;
39994;SDS011;25686;51.908;10.418;2022-08-20T09:11:06;16.00;;;6.53;;
39994;SDS011;25686;51.908;10.418;2022-08-20T09:13:07;21.88;;;7.72;;
39994;SDS011;25686;51.908;10.418;2022-08-20T09:15:08;15.38;;;6.68;;
39994;SDS011;25686;51.908;10.418;2022-08-20T09:17:09;8.57;;;7.18;;
39994;SDS011;25686;51.908;10.418;2022-08-20T09:19:10;10.80;;;7.05;;
39994;SDS011;25686;51.908;10.418;2022-08-20T09:21:11;8.50;;;6.47;;
39994;SDS011;25686;51.908;10.418;2022-08-20T09:23:13;7.80;;;6.75;;
39994;SDS011;25686;51.908;10.418;2022-08-20T09:25:14;9.27;;;6.28;;
39994;SDS011;25686;51.908;10.418;2022-08-20T09:27:16;9.65;;;6.70;;
39994;SDS011;25686;51.908;10.418;2022-08-20T09:29:17;9.38;;;6.22;;
39994;SDS011;25686;51.908;10.418;2022-08-20T09:31:18;9.65;;;6.85;;
39994;SDS011;25686;51.908;10.418;2022-08-20T09:33:18;9.80;;;7.13;;
39994;SDS011;25686;51.908;10.418;2022-08-20T09:35:19;8.70;;;7.80;;
39994;SDS011;25686;51.908;10.418;2022-08-20T09:37:21;8.57;;;7.10;;
39994;SDS011;25686;51.908;10.418;2022-08-20T09:39:22;15.30;;;6.75;;
39994;SDS011;25686;51.908;10.418;2022-08-20T09:41:23;8.60;;;7.40;;
39994;SDS011;25686;51.908;10.418;2022-08-20T09:43:24;11.68;;;8.07;;
39994;SDS011;25686;51.908;10.418;2022-08-20T09:45:25;9.85;;;8.15;;
39994;SDS011;25686;51.908;10.418;2022-08-20T09:47:26;11.60;;;6.93;;
39994;SDS011;25686;51.908;10.418;2022-08-20T09:49:27;10.20;;;8.27;;
39994;SDS011;25686;51.908;10.418;2022-08-20T09:51:28;12.63;;;7.65;;
39994;SDS011;25686;51.908;10.418;2022-08-20T09:53:29;8.07;;;7.25;;
39994;SDS011;25686;51.908;10.418;2022-08-20T09:55:34;9.50;;;7.45;;
39994;SDS011;25686;51.908;10.418;2022-08-20T09:57:36;10.98;;;7.25;;
39994;SDS011;25686;51.908;10.418;2022-08-20T09:59:37;8.73;;;6.88;;
39994;SDS011;25686;51.908;10.418;2022-08-20T10:01:38;8.13;;;7.32;;
39994;SDS011;25686;51.908;10.418;2022-08-20T10:03:41;10.35;;;7.47;;
39994;SDS011;25686;51.908;10.418;2022-08-20T10:05:43;11.10;;;7.75;;
39994;SDS011;25686;51.908;10.418;2022-08-20T10:07:44;11.35;;;7.00;;
39994;SDS011;25686;51.908;10.418;2022-08-20T10:09:45;10.15;;;6.90;;
39994;SDS011;25686;51.908;10.418;2022-08-20T10:11:45;8.98;;;6.53;;
39994;SDS011;25686;51.908;10.418;2022-08-20T10:13:46;9.43;;;6.50;;
39994;SDS011;25686;51.908;10.418;2022-08-20T10:15:47;8.05;;;6.82;;
39994;SDS011;25686;51.908;10.418;2022-08-20T10:17:48;8.07;;;6.30;;
39994;SDS011;25686;51.908;10.418;2022-08-20T10:19:49;8.57;;;6.78;;
39994;SDS011;25686;51.908;10.418;2022-08-20T10:21:51;13.88;;;7.72;;
39994;SDS011;25686;51.908;10.418;2022-08-20T10:23:52;9.90;;;7.03;;
39994;SDS011;25686;51.908;10.418;2022-08-20T10:25:53;10.40;;;7.28;;
39994;SDS011;25686;51.908;10.418;2022-08-20T10:27:54;8.20;;;6.57;;
39994;SDS011;25686;51.908;10.418;2022-08-20T10:29:55;11.43;;;7.50;;
39994;SDS011;25686;51.908;10.418;2022-08-20T10:31:56;9.60;;;7.13;;
39994;SDS011;25686;51.908;10.418;2022-08-20T10:34:08;9.75;;;7.72;;
39994;SDS011;25686;51.908;10.418;2022-08-20T10:36:10;10.15;;;7.35;;
39994;SDS011;25686;51.908;10.418;2022-08-20T10:38:11;9.70;;;6.60;;
39994;SDS011;25686;51.908;10.418;2022-08-20T10:40:12;8.73;;;6.40;;
39994;SDS011;25686;51.908;10.418;2022-08-20T10:42:16;7.90;;;7.10;;
39994;SDS011;25686;51.908;10.418;2022-08-20T10:44:17;10.02;;;7.35;;
39994;SDS011;25686;51.908;10.418;2022-08-20T10:46:18;8.80;;;7.18;;
39994;SDS011;25686;51.908;10.418;2022-08-20T10:48:19;9.07;;;6.90;;
39994;SDS011;25686;51.908;10.418;2022-08-20T10:50:20;7.88;;;6.50;;
39994;SDS011;25686;51.908;10.418;2022-08-20T10:52:21;8.40;;;6.10;;
39994;SDS011;25686;51.908;10.418;2022-08-20T10:54:23;8.20;;;7.40;;
39994;SDS011;25686;51.908;10.418;2022-08-20T10:56:24;8.27;;;6.75;;
39994;SDS011;25686;51.908;10.418;2022-08-20T10:58:25;7.53;;;6.82;;
39994;SDS011;25686;51.908;10.418;2022-08-20T11:00:26;8.70;;;7.38;;
39994;SDS011;25686;51.908;10.418;2022-08-20T11:02:27;11.43;;;7.85;;
39994;SDS011;25686;51.908;10.418;2022-08-20T11:04:28;7.57;;;6.88;;
39994;SDS011;25686;51.908;10.418;2022-08-20T11:06:29;8.00;;;7.18;;
39994;SDS011;25686;51.908;10.418;2022-08-20T11:08:30;6.60;;;5.90;;
39994;SDS011;25686;51.908;10.418;2022-08-20T11:10:32;8.80;;;6.70;;
39994;SDS011;25686;51.908;10.418;2022-08-20T11:12:33;7.85;;;6.90;;
39994;SDS011;25686;51.908;10.418;2022-08-20T11:14:34;11.20;;;7.07;;
39994;SDS011;25686;51.908;10.418;2022-08-20T11:16:35;6.65;;;5.93;;
39994;SDS011;25686;51.908;10.418;2022-08-20T11:18:36;10.70;;;6.85;;
39994;SDS011;25686;51.908;10.418;2022-08-20T11:20:37;6.40;;;5.68;;
39994;SDS011;25686;51.908;10.418;2022-08-20T11:22:38;8.15;;;6.38;;
39994;SDS011;25686;51.908;10.418;2022-08-20T11:24:39;6.97;;;6.25;;
39994;SDS011;25686;51.908;10.418;2022-08-20T11:26:40;7.53;;;6.38;;
39994;SDS011;25686;51.908;10.418;2022-08-20T11:28:41;7.28;;;5.90;;
39994;SDS011;25686;51.908;10.418;2022-08-20T11:30:42;6.05;;;5.40;;
39994;SDS011;25686;51.908;10.418;2022-08-20T11:32:45;7.90;;;5.78;;
39994;SDS011;25686;51.908;10.418;2022-08-20T11:34:46;7.75;;;5.72;;
39994;SDS011;25686;51.908;10.418;2022-08-20T11:36:47;8.07;;;5.45;;
39994;SDS011;25686;51.908;10.418;2022-08-20T11:38:48;7.03;;;5.60;;
39994;SDS011;25686;51.908;10.418;2022-08-20T11:40:49;7.45;;;6.60;;
39994;SDS011;25686;51.908;10.418;2022-08-20T11:42:50;8.73;;;5.57;;
39994;SDS011;25686;51.908;10.418;2022-08-20T11:44:51;7.05;;;6.35;;
39994;SDS011;25686;51.908;10.418;2022-08-20T11:46:52;7.45;;;6.28;;
39994;SDS011;25686;51.908;10.418;2022-08-20T11:48:54;9.00;;;6.20;;
39994;SDS011;25686;51.908;10.418;2022-08-20T11:50:54;7.07;;;6.13;;
39994;SDS011;25686;51.908;10.418;2022-08-20T11:52:55;9.88;;;6.85;;
39994;SDS011;25686;51.908;10.418;2022-08-20T11:54:57;6.95;;;6.25;;
39994;SDS011;25686;51.908;10.418;2022-08-20T11:56:58;8.65;;;6.07;;
39994;SDS011;25686;51.908;10.418;2022-08-20T11:58:59;8.40;;;6.30;;
39994;SDS011;25686;51.908;10.418;2022-08-20T12:01:00;8.20;;;6.90;;
39994;SDS011;25686;51.908;10.418;2022-08-20T12:03:01;6.78;;;5.70;;
39994;SDS011;25686;51.908;10.418;2022-08-20T12:05:03;9.60;;;6.50;;
39994;SDS011;25686;51.908;10.418;2022-08-20T12:07:11;8.80;;;6.88;;
39994;SDS011;25686;51.908;10.418;2022-08-20T12:09:13;8.75;;;6.85;;